Saint Martins, Missouri
Current Conditions -  °F | °C
As of 11:08 AM on Friday 24 Oct 2014 (Local Time) from KJEF Reporting Station
Broken Clouds Broken Clouds  
Wind Chill: 65°   Ceiling: 1600
Heat Index: 65°   Visibility: 10mi
Dew Point: 57°   Wind: 6mph
Humidity: 75%   Direction: NA
Pressure: 30.11"   Gusts: NA
Location:  38.5621°N, 92.2945°W
Report Text: KJEF 241608Z VRB05KT 10SM BKN016 BKN027 18/14 A3011 RMK AO2 T01830139
Loading
Personal Weather Stations






























Interactive Weather Map
Tropical Storm Tracking
New forecast layout! Learn more

10-Day Weather Forecast

Advertisements
Track Severe Weather on mobile